Terminal Aerodrome Forecast
Issued by NWS Pittsburgh, PA

Home | Current Version | Previous Version | Text Only | Print | Product List | Glossary On
Versions: 1 2 3 4 5 6 7 8 9 10 11 12 13 14 15 16 17 18 19 20 21 22 23 24 25 26 27 28 29 30 31 32 33
000
FTUS41 KPBZ 171946 AAB
TAFPIT
TAF AMD
KPIT 171946Z 1720/1824 14008KT 2SM -SN OVC015
      TEMPO 1720/1723 1/2SM SN
     FM180000 25005KT 1SM -SN OVC015
     FM180200 26008KT P6SM VCSH OVC010
     FM180500 26007KT P6SM BKN015
     FM181400 30008KT P6SM OVC025=

USA.gov is the U.S. government's official web portal to all federal, state and local government web resources and services.